Oak Grove (212) Station Data

Red Flag Warning: Yes
Fire Weather Zone: 258
SDGE Region: Ramona
Lat/Lon: 33.392/-116.788

Observations

Time Wind Speed/Gust Temp(F) RH Fuel Moist Fuel Temp(F) Dewpt(F) Tmax(F) Tmin(F) Accum Precip 10-min Precip SL Press(mb)
6/27 5:00pm 283 13 G 20 92° 7% - - 20° 94.8° 54.6° - - -
6/27 4:50pm 281 14 G 21 93° 7% - - 18° 94.8° 54.6° - - -
6/27 4:40pm 280 12 G 19 93° 7% - - 20° 94.8° 54.6° - - -
6/27 4:30pm 273 14 G 20 93° 7% - - 21° 94.8° 54.6° - - -
6/27 4:20pm 284 13 G 20 93° 7% - - 19° 94.8° 54.6° - - -
6/27 4:10pm 285 13 G 21 93° 7% - - 21° 94.8° 54.6° - - -
6/27 4:00pm 277 14 G 23 93° 7% - - 21° 94.8° 54.6° - - -
6/27 3:50pm 275 14 G 22 94° 7% - - 19° 94.8° 54.6° - - -
6/27 3:40pm 284 13 G 20 93° 7% - - 21° 94.8° 54.6° - - -
6/27 3:30pm 283 14 G 22 93° 8% - - 23° 94.8° 54.6° - - -
6/27 3:20pm 274 15 G 22 93° 8% - - 24° 94.8° 54.6° - - -
6/27 3:10pm 278 13 G 22 93° 8% - - 24° 94.8° 54.6° - - -
6/27 3:00pm 284 12 G 20 94° 8% - - 24° 94.8° 54.6° - - -
6/27 2:50pm 294 14 G 23 93° 8% - - 23° 94.8° 54.6° - - -
6/27 2:40pm 300 14 G 23 94° 8% - - 24° 94.8° 54.6° - - -
6/27 2:30pm 306 15 G 23 93° 8% - - 23° 94.8° 54.6° - - -
6/27 2:20pm 305 15 G 23 93° 8% - - 23° 94.8° 54.6° - - -
6/27 2:10pm 304 16 G 25 93° 8% - - 22° 94.8° 54.6° - - -
6/27 2:00pm 305 15 G 24 93° 7% - - 21° 94.8° 54.6° - - -
6/27 1:50pm 300 16 G 23 93° 7% - - 21° 94.8° 54.6° - - -
6/27 1:40pm 286 13 G 18 94° 7% - - 21° 94.8° 54.6° - - -
6/27 1:30pm 279 15 G 24 93° 8% - - 22° 94.8° 54.6° - - -
6/27 1:20pm 278 13 G 19 93° 8% - - 22° 94.8° 54.6° - - -
6/27 1:10pm 266 13 G 23 93° 8% - - 23° 94.2° 54.6° - - -
6/27 1:00pm 281 14 G 23 93° 8% - - 23° 94.2° 54.6° - - -
6/27 12:50pm 284 12 G 20 93° 8% - - 24° 94.2° 54.6° - - -
6/27 12:40pm 281 14 G 24 93° 9% - - 24° 93.6° 54.6° - - -
6/27 12:30pm 306 13 G 21 92° 9% - - 25° 93.6° 54.6° - - -
6/27 12:20pm 316 12 G 18 92° 9% - - 25° 93.6° 54.6° - - -
6/27 12:10pm 321 14 G 26 92° 9% - - 24° 93.6° 54.6° - - -
6/27 12:00pm 316 14 G 21 92° 9% - - 24° 93.6° 54.6° - - -
6/27 11:50am 321 14 G 22 91° 9% - - 24° 92.8° 54.6° - - -
6/27 11:40am 321 16 G 22 91° 9% - - 24° 92.3° 54.6° - - -
6/27 11:30am 321 14 G 21 90° 9% - - 24° 92.3° 54.6° - - -
6/27 11:20am 323 14 G 22 91° 9% - - 24° 92.3° 54.6° - - -
6/27 11:10am 324 13 G 20 91° 9% - - 24° 92.3° 54.6° - - -
6/27 11:00am 318 14 G 20 91° 9% - - 24° 91.6° 54.6° - - -
6/27 10:50am 317 14 G 22 90° 9% - - 24° 90.7° 54.6° - - -
6/27 10:40am 321 13 G 19 90° 9% - - 25° 90.7° 54.6° - - -
6/27 10:30am 328 14 G 21 89° 9% - - 24° 90.7° 54.6° - - -
6/27 10:20am 324 13 G 18 89° 10% - - 24° 90.7° 54.6° - - -
6/27 10:10am 323 13 G 19 88° 10% - - 25° 89.7° 54.6° - - -
6/27 10:00am 320 12 G 19 88° 10% - - 25° 89.3° 54.6° - - -
6/27 9:50am 323 13 G 20 88° 10% - - 26° 89.3° 54.6° - - -
6/27 9:40am 324 12 G 18 88° 11% - - 26° 88.6° 54.6° - - -
6/27 9:30am 326 12 G 19 88° 11% - - 27° 88.4° 54.6° - - -
6/27 9:20am 331 10 G 17 87° 11% - - 26° 87.8° 54.6° - - -
6/27 9:10am 335 9 G 16 86° 11% - - 26° 87.4° 54.6° - - -
6/27 9:00am 326 8 G 13 86° 11% - - 26° 87.1° 54.6° - - -
6/27 8:50am 291 4 G 11 85° 12% - - 27° 86.3° 54.6° - - -
6/27 8:40am 312 4 G 8 85° 12% - - 26° 85.5° 54.6° - - -
6/27 8:30am 12 2 G 6 85° 11% - - 25° 85.5° 54.6° - - -
6/27 8:20am 114 1 G 2 84° 11% - - 25° 84.6° 54.6° - - -
6/27 8:10am 88 1 G 3 82° 13% - - 27° 83.6° 54.6° - - -
6/27 8:00am 72 1 G 3 80° 17% - - 31° 80.5° 54.6° - - -
6/27 7:50am 50 1 G 1 79° 18% - - 32° 79.9° 54.6° - - -
6/27 7:40am 18 1 G 2 76° 19% - - 31° 77.3° 54.6° - - -
6/27 7:30am 56 1 G 2 73° 20% - - 29° 74.5° 54.6° - - -
6/27 7:20am 121 1 G 3 70° 21% - - 29° 72° 54.6° - - -
6/27 7:10am 127 2 G 3 67° 24% - - 29° 68.6° 54.6° - - -
6/27 7:00am 154 2 G 4 66° 25% - - 29° 66.7° 54.6° - - -
6/27 6:50am 133 2 G 4 64° 25% - - 27° 66.7° 54.6° - - -
6/27 6:40am 110 3 G 4 62° 25% - - 26° 66.7° 54.6° - - -
6/27 6:30am 95 4 G 4 61° 25% - - 25° 66.7° 54.6° - - -
6/27 6:20am 123 1 G 3 60° 26% - - 25° 66.7° 54.6° - - -
6/27 6:10am 157 2 G 3 60° 26% - - 25° 66.7° 54.6° - - -
6/27 6:00am 128 2 G 4 59° 27% - - 24° 66.7° 54.6° - - -
6/27 5:50am 113 3 G 5 60° 25% - - 24° 66.7° 54.6° - - -
6/27 5:40am 116 3 G 4 60° 25% - - 25° 66.7° 54.6° - - -
6/27 5:30am 109 2 G 3 57° 28% - - 24° 66.7° 54.6° - - -
6/27 5:20am 91 2 G 5 58° 28% - - 25° 66.7° 56.3° - - -
6/27 5:10am 141 3 G 5 60° 26% - - 25° 66.7° 56.4° - - -
6/27 5:00am 143 3 G 4 60° 26% - - 25° 66.7° 56.4° - - -
6/27 4:50am 115 3 G 5 59° 27% - - 25° 66.7° 56.4° - - -
6/27 4:40am 118 5 G 6 60° 26% - - 25° 66.7° 56.4° - - -
6/27 4:30am 140 3 G 5 59° 29% - - 26° 66.7° 56.4° - - -
6/27 4:20am 135 3 G 5 57° 30% - - 26° 66.7° 56.4° - - -
6/27 4:10am 116 3 G 5 57° 29% - - 25° 66.7° 56.4° - - -
6/27 4:00am 112 3 G 5 58° 28% - - 25° 66.7° 56.9° - - -
6/27 3:50am 121 2 G 4 59° 27% - - 25° 66.7° 57° - - -
6/27 3:40am 136 2 G 4 59° 26% - - 25° 66.7° 58.8° - - -
6/27 3:30am 121 2 G 4 60° 26% - - 25° 66.7° 59° - - -
6/27 3:20am 136 2 G 4 60° 27% - - 26° 66.7° 59° - - -
6/27 3:10am 136 3 G 4 61° 25% - - 25° 66.7° 59° - - -
6/27 3:00am 152 2 G 4 60° 27% - - 26° 66.7° 59.1° - - -
6/27 2:50am 159 3 G 5 61° 25% - - 25° 66.7° 59.2° - - -
6/27 2:40am 124 3 G 4 62° 23% - - 23° 66.7° 59.2° - - -
6/27 2:30am 120 2 G 4 61° 24% - - 24° 66.7° 59.2° - - -
6/27 2:20am 117 2 G 3 61° 25% - - 24° 66.7° 59.2° - - -
6/27 2:10am 138 2 G 3 60° 26% - - 25° 66.7° 59.6° - - -
6/27 2:00am 132 5 G 7 61° 24% - - 24° 66.7° 60.3° - - -
6/27 1:50am 151 3 G 4 61° 25% - - 25° 66.7° 60.5° - - -
6/27 1:40am 139 2 G 3 61° 24% - - 24° 66.7° 60.5° - - -
6/27 1:30am 125 2 G 4 62° 24% - - 24° 66.7° 60.5° - - -
6/27 1:20am 98 3 G 4 61° 24% - - 24° 66.7° 60.5° - - -
6/27 1:10am 106 2 G 3 63° 24% - - 25° 66.7° 61.8° - - -
6/27 1:00am 123 2 G 3 63° 23% - - 25° 66.7° 61.8° - - -
6/27 12:50am 115 4 G 6 64° 23% - - 26° 66.7° 62.5° - - -
6/27 12:40am 78 3 G 5 64° 24% - - 27° 66.7° 62.5° - - -
6/27 12:30am 151 3 G 6 65° 24% - - 28° 66.7° 63.4° - - -
6/27 12:20am 168 3 G 5 65° 24% - - 28° 66.7° 63.4° - - -
6/27 12:10am 91 4 G 6 65° 23% - - 26° 66.7° 63.4° - - -
6/27 12:00am 64 1 G 3 66° 24% - - 28° 99.4° 65° - - -
6/26 11:50pm 91 1 G 2 66° 24% - - 28° 99.4° 65° - - -
6/26 11:40pm 62 2 G 4 66° 24% - - 28° 99.4° 65° - - -
6/26 11:30pm 136 4 G 5 68° 24% - - 30° 99.4° 65° - - -
6/26 11:20pm 152 4 G 5 67° 24% - - 30° 99.4° 65° - - -
6/26 11:10pm 120 3 G 5 66° 25% - - 29° 99.4° 65° - - -
6/26 11:00pm 123 3 G 4 67° 24% - - 29° 99.4° 65° - - -
6/26 10:50pm 130 4 G 5 67° 24% - - 29° 99.4° 65° - - -
6/26 10:40pm 109 3 G 4 68° 24% - - 29° 99.4° 65° - - -
6/26 10:30pm 127 3 G 5 70° 22% - - 29° 99.4° 65° - - -
6/26 10:20pm 127 3 G 5 71° 22% - - 29° 99.4° 65° - - -
6/26 10:10pm 151 3 G 4 73° 20% - - 29° 99.4° 65° - - -
6/26 10:00pm 146 2 G 4 73° 19% - - 29° 99.4° 65° - - -
6/26 9:50pm 147 3 G 4 75° 18% - - 29° 99.4° 65° - - -
6/26 9:40pm 141 4 G 5 76° 17% - - 29° 99.4° 65° - - -
6/26 9:30pm 189 2 G 4 79° 17% - - 31° 99.4° 65° - - -
6/26 9:20pm 145 1 G 3 79° 17% - - 31° 99.4° 65° - - -
6/26 9:10pm 263 3 G 5 80° 16% - - 30° 99.4° 65° - - -
6/26 9:00pm 263 5 G 6 81° 15% - - 29° 99.4° 65° - - -
6/26 8:50pm 275 4 G 7 83° 13% - - 27° 99.4° 65° - - -
6/26 8:40pm 315 9 G 13 86° 10% - - 24° 99.4° 65° - - -
6/26 8:30pm 326 8 G 13 85° 10% - - 23° 99.4° 65° - - -
6/26 8:20pm 307 5 G 9 85° 11% - - 25° 99.4° 65° - - -
6/26 8:10pm 322 5 G 8 86° 11% - - 24° 99.4° 65° - - -
6/26 8:00pm 317 6 G 9 87° 10% - - 24° 99.4° 65° - - -
6/26 7:50pm 303 6 G 10 88° 10% - - 25° 99.4° 65° - - -
6/26 7:40pm 290 8 G 13 88° 10% - - 25° 99.4° 65° - - -
6/26 7:30pm 280 9 G 14 89° 10% - - 26° 99.4° 65° - - -
6/26 7:20pm 278 9 G 15 90° 10% - - 27° 99.4° 65° - - -
6/26 7:10pm 280 9 G 14 91° 10% - - 27° 99.4° 65° - - -
6/26 7:00pm 278 10 G 17 91° 10% - - 27° 99.4° 65° - - -
6/26 6:50pm 274 11 G 17 92° 10% - - 27° 99.4° 65° - - -
6/26 6:40pm 272 12 G 19 92° 10% - - 28° 99.4° 65° - - -
6/26 6:30pm 273 14 G 22 92° 10% - - 28° 99.4° 65° - - -
6/26 6:20pm 272 16 G 23 93° 10% - - 28° 99.4° 65° - - -
6/26 6:10pm 272 15 G 22 93° 10% - - 28° 99.4° 65° - - -
6/26 6:00pm 275 16 G 25 93° 10% - - 28° 99.4° 65° - - -
6/26 5:50pm 275 18 G 29 93° 10% - - 28° 99.4° 65° - - -
6/26 5:40pm 278 16 G 24 94° 10% - - 28° 99.4° 65° - - -
6/26 5:30pm 272 16 G 26 94° 10% - - 28° 99.4° 65° - - -
6/26 5:20pm 271 17 G 27 94° 9% - - 28° 99.4° 65° - - -
6/26 5:10pm 269 18 G 26 94° 9% - - 27° 99.4° 65° - - -
6/26 5:00pm 275 18 G 29 95° 9% - - 27° 99.4° 65° - - -
6/26 4:50pm 277 18 G 27 95° 9% - - 27° 99.4° 65° - - -
6/26 4:40pm 274 18 G 28 95° 9% - - 28° 99.4° 65° - - -
6/26 4:30pm 267 17 G 24 95° 9% - - 28° 99.4° 65° - - -
6/26 4:20pm 279 18 G 25 96° 9% - - 29° 99.4° 65° - - -
6/26 4:10pm 278 16 G 24 96° 9% - - 28° 99.4° 65° - - -
6/26 4:00pm 272 15 G 22 96° 9% - - 29° 99.4° 65° - - -
6/26 3:50pm 276 15 G 25 97° 9% - - 29° 99.4° 65° - - -
6/26 3:40pm 279 16 G 25 97° 9% - - 29° 99.4° 65° - - -
6/26 3:30pm 283 15 G 24 97° 9% - - 29° 99.4° 65° - - -
6/26 3:20pm 271 15 G 25 98° 9% - - 29° 99.4° 65° - - -
6/26 3:10pm 288 14 G 25 98° 9% - - 29° 99.4° 65° - - -
6/26 3:00pm 292 15 G 23 98° 9% - - 29° 99.4° 65° - - -
6/26 2:50pm 296 17 G 24 97° 9% - - 29° 99.4° 65° - - -
6/26 2:40pm 292 14 G 22 98° 10% - - 31° 99.4° 65° - - -
6/26 2:30pm 296 15 G 24 98° 10% - - 32° 99.4° 65° - - -
6/26 2:20pm 285 14 G 21 98° 10% - - 32° 99.4° 65° - - -
6/26 2:10pm 282 14 G 21 97° 10% - - 32° 99.4° 65° - - -
6/26 2:00pm 264 14 G 25 98° 10% - - 32° 99.4° 65° - - -
6/26 1:50pm 273 16 G 27 98° 10% - - 32° 99.4° 65° - - -
6/26 1:40pm 309 13 G 24 98° 9% - - 31° 99.4° 65° - - -
6/26 1:30pm 305 13 G 24 98° 9% - - 31° 99.3° 65° - - -
6/26 1:20pm 304 15 G 26 97° 9% - - 30° 99.3° 65° - - -
6/26 1:10pm 315 16 G 23 98° 9% - - 30° 99.3° 65° - - -
6/26 1:00pm 320 14 G 25 98° 9% - - 30° 99.3° 65° - - -
6/26 12:50pm 318 14 G 24 97° 9% - - 30° 99.1° 65° - - -
6/26 12:40pm 319 13 G 22 98° 9% - - 29° 99.1° 65° - - -
6/26 12:30pm 317 13 G 23 97° 9% - - 29° 99.1° 65° - - -
6/26 12:20pm 305 13 G 24 98° 9% - - 29° 99.1° 65° - - -
6/26 12:10pm 316 10 G 17 97° 9% - - 30° 99.1° 65° - - -
6/26 12:00pm 318 14 G 22 98° 9% - - 29° 98.7° 65° - - -
6/26 11:50am 315 13 G 21 97° 9% - - 29° 98.5° 65° - - -
6/26 11:40am 316 14 G 23 97° 9% - - 28° 98° 65° - - -
6/26 11:30am 322 14 G 22 97° 9% - - 28° 98° 65° - - -
6/26 11:20am 314 12 G 19 97° 9% - - 28° 98° 65° - - -
6/26 11:10am 314 12 G 21 97° 9% - - 27° 97.4° 65° - - -
6/26 11:00am 297 14 G 21 96° 9% - - 28° 97.4° 65° - - -
6/26 10:50am 301 12 G 20 96° 9% - - 28° 96.6° 65° - - -
6/26 10:40am 300 13 G 21 96° 9% - - 28° 96.5° 65° - - -
6/26 10:30am 305 13 G 20 96° 9% - - 27° 96.5° 65° - - -
6/26 10:20am 303 14 G 20 95° 9% - - 27° 96.5° 65° - - -
6/26 10:10am 301 14 G 22 95° 9% - - 28° 96.5° 65° - - -
6/26 10:00am 303 13 G 19 95° 9% - - 27° 96.4° 65° - - -
6/26 9:50am 297 13 G 21 95° 9% - - 27° 95.9° 65° - - -
6/26 9:40am 300 13 G 21 95° 9% - - 27° 95.5° 65° - - -
6/26 9:30am 299 12 G 18 94° 9% - - 28° 95.4° 65° - - -
6/26 9:20am 303 11 G 17 94° 10% - - 30° 94.9° 65° - - -
6/26 9:10am 310 9 G 15 94° 11% - - 31° 94.7° 65° - - -
6/26 9:00am 294 7 G 12 93° 12% - - 34° 94.4° 65° - - -
6/26 8:50am 286 3 G 6 92° 14% - - 37° 92.7° 65° - - -
6/26 8:40am 161 1 G 5 92° 15% - - 38° 92.4° 65° - - -
6/26 8:30am 113 1 G 1 91° 17% - - 40° 91.4° 65° - - -
6/26 8:20am 61 1 G 1 90° 19% - - 42° 90.7° 65° - - -
6/26 8:10am 77 1 G 1 87° 22% - - 43° 88.5° 65° - - -
6/26 8:00am 122 1 G 1 86° 22% - - 43° 86.8° 65° - - -
6/26 7:50am 154 1 G 1 84° 24% - - 43° 84.9° 65° - - -
6/26 7:40am 96 1 G 1 84° 24% - - 43° 84.9° 65° - - -
6/26 7:30am 41 1 G 1 82° 25% - - 42° 83.1° 65° - - -
6/26 7:20am 65 1 G 1 78° 27% - - 42° 80.9° 65° - - -
6/26 7:10am 133 1 G 1 74° 30% - - 41° 76° 65° - - -
6/26 7:00am 139 2 G 4 72° 32% - - 41° 74.3° 65° - - -
6/26 6:50am 144 4 G 5 71° 32% - - 40° 72.6° 65° - - -
6/26 6:40am 127 2 G 4 71° 31% - - 39° 72.4° 65° - - -
6/26 6:30am 81 1 G 2 69° 32% - - 38° 72.4° 65° - - -
6/26 6:20am 99 2 G 3 67° 34% - - 38° 72.4° 65° - - -
6/26 6:10am 138 3 G 4 66° 36% - - 38° 72.4° 65° - - -
6/26 6:00am 123 3 G 4 66° 36% - - 38° 72.4° 65° - - -